sensor_id;sensor_type;location;lat;lon;timestamp;temperature;humidity
15343;DHT22;7771;48.478;8.936;2024-03-02T00:00:40;6.30;99.90
15343;DHT22;7771;48.478;8.936;2024-03-02T00:03:08;6.40;99.90
15343;DHT22;7771;48.478;8.936;2024-03-02T00:05:35;6.40;99.90
15343;DHT22;7771;48.478;8.936;2024-03-02T00:08:04;6.40;99.90
15343;DHT22;7771;48.478;8.936;2024-03-02T00:13:02;6.40;99.90
15343;DHT22;7771;48.478;8.936;2024-03-02T00:15:46;6.40;99.90
15343;DHT22;7771;48.478;8.936;2024-03-02T00:18:13;6.30;99.90
15343;DHT22;7771;48.478;8.936;2024-03-02T00:20:39;6.40;99.90
15343;DHT22;7771;48.478;8.936;2024-03-02T00:23:07;6.40;99.90
15343;DHT22;7771;48.478;8.936;2024-03-02T00:25:40;6.40;99.90
15343;DHT22;7771;48.478;8.936;2024-03-02T00:28:29;6.40;99.90
15343;DHT22;7771;48.478;8.936;2024-03-02T00:33:27;6.40;99.90
15343;DHT22;7771;48.478;8.936;2024-03-02T00:38:21;6.20;99.90
15343;DHT22;7771;48.478;8.936;2024-03-02T00:43:38;6.20;99.90
15343;DHT22;7771;48.478;8.936;2024-03-02T00:46:03;6.30;99.90
15343;DHT22;7771;48.478;8.936;2024-03-02T00:48:31;6.30;99.90
15343;DHT22;7771;48.478;8.936;2024-03-02T00:50:57;6.30;99.90
15343;DHT22;7771;48.478;8.936;2024-03-02T00:53:25;6.30;99.90
15343;DHT22;7771;48.478;8.936;2024-03-02T00:55:52;6.20;99.90
15343;DHT22;7771;48.478;8.936;2024-03-02T00:58:19;6.20;99.90
15343;DHT22;7771;48.478;8.936;2024-03-02T01:00:46;6.20;99.90
15343;DHT22;7771;48.478;8.936;2024-03-02T01:03:13;6.10;99.90
15343;DHT22;7771;48.478;8.936;2024-03-02T01:05:41;6.10;99.90
15343;DHT22;7771;48.478;8.936;2024-03-02T01:08:08;6.10;99.90
15343;DHT22;7771;48.478;8.936;2024-03-02T01:10:34;6.10;99.90
15343;DHT22;7771;48.478;8.936;2024-03-02T01:15:30;6.00;99.90
15343;DHT22;7771;48.478;8.936;2024-03-02T01:17:56;6.00;99.90
15343;DHT22;7771;48.478;8.936;2024-03-02T01:20:24;6.00;99.90
15343;DHT22;7771;48.478;8.936;2024-03-02T01:22:52;5.90;99.90
15343;DHT22;7771;48.478;8.936;2024-03-02T01:25:20;5.90;99.90
15343;DHT22;7771;48.478;8.936;2024-03-02T01:27:46;5.90;99.90
15343;DHT22;7771;48.478;8.936;2024-03-02T01:30:14;5.90;99.90
15343;DHT22;7771;48.478;8.936;2024-03-02T01:32:42;5.80;99.90
15343;DHT22;7771;48.478;8.936;2024-03-02T01:35:09;5.80;99.90
15343;DHT22;7771;48.478;8.936;2024-03-02T01:37:36;5.80;99.90
15343;DHT22;7771;48.478;8.936;2024-03-02T01:40:03;5.80;99.90
15343;DHT22;7771;48.478;8.936;2024-03-02T01:42:30;5.80;99.90
15343;DHT22;7771;48.478;8.936;2024-03-02T01:47:26;5.70;99.90
15343;DHT22;7771;48.478;8.936;2024-03-02T01:49:54;5.70;99.90
15343;DHT22;7771;48.478;8.936;2024-03-02T01:52:21;5.80;99.90
15343;DHT22;7771;48.478;8.936;2024-03-02T01:54:49;5.70;99.90
15343;DHT22;7771;48.478;8.936;2024-03-02T01:57:15;5.60;99.90
15343;DHT22;7771;48.478;8.936;2024-03-02T01:59:43;5.60;99.90
15343;DHT22;7771;48.478;8.936;2024-03-02T02:02:09;5.50;99.90
15343;DHT22;7771;48.478;8.936;2024-03-02T02:07:04;5.50;99.90
15343;DHT22;7771;48.478;8.936;2024-03-02T02:09:31;5.50;99.90
15343;DHT22;7771;48.478;8.936;2024-03-02T02:11:57;5.30;99.90
15343;DHT22;7771;48.478;8.936;2024-03-02T02:14:24;5.30;99.90
15343;DHT22;7771;48.478;8.936;2024-03-02T02:16:51;5.30;99.90
15343;DHT22;7771;48.478;8.936;2024-03-02T02:19:18;5.20;99.90
15343;DHT22;7771;48.478;8.936;2024-03-02T02:21:45;5.20;99.90
15343;DHT22;7771;48.478;8.936;2024-03-02T02:24:12;5.10;99.90
15343;DHT22;7771;48.478;8.936;2024-03-02T02:26:39;5.10;99.90
15343;DHT22;7771;48.478;8.936;2024-03-02T02:29:07;5.10;99.90
15343;DHT22;7771;48.478;8.936;2024-03-02T02:31:40;5.10;99.90
15343;DHT22;7771;48.478;8.936;2024-03-02T02:34:06;5.10;99.90
15343;DHT22;7771;48.478;8.936;2024-03-02T02:36:33;5.10;99.90
15343;DHT22;7771;48.478;8.936;2024-03-02T02:39:02;5.10;99.90
15343;DHT22;7771;48.478;8.936;2024-03-02T02:41:27;5.00;99.90
15343;DHT22;7771;48.478;8.936;2024-03-02T02:43:54;5.00;99.90
15343;DHT22;7771;48.478;8.936;2024-03-02T02:46:22;5.00;99.90
15343;DHT22;7771;48.478;8.936;2024-03-02T02:48:50;4.90;99.90
15343;DHT22;7771;48.478;8.936;2024-03-02T02:51:16;4.90;99.90
15343;DHT22;7771;48.478;8.936;2024-03-02T02:53:44;4.90;99.90
15343;DHT22;7771;48.478;8.936;2024-03-02T02:56:11;4.80;99.90
15343;DHT22;7771;48.478;8.936;2024-03-02T02:58:39;4.70;99.90
15343;DHT22;7771;48.478;8.936;2024-03-02T03:01:06;4.70;99.90
15343;DHT22;7771;48.478;8.936;2024-03-02T03:03:33;4.60;99.90
15343;DHT22;7771;48.478;8.936;2024-03-02T03:06:00;4.60;99.90
15343;DHT22;7771;48.478;8.936;2024-03-02T03:08:27;4.60;99.90
15343;DHT22;7771;48.478;8.936;2024-03-02T03:10:55;4.50;99.90
15343;DHT22;7771;48.478;8.936;2024-03-02T03:13:22;4.50;99.90
15343;DHT22;7771;48.478;8.936;2024-03-02T03:15:49;4.50;99.90
15343;DHT22;7771;48.478;8.936;2024-03-02T03:18:17;4.40;99.90
15343;DHT22;7771;48.478;8.936;2024-03-02T03:20:45;4.40;99.90
15343;DHT22;7771;48.478;8.936;2024-03-02T03:23:12;4.40;99.90
15343;DHT22;7771;48.478;8.936;2024-03-02T03:25:39;4.40;99.90
15343;DHT22;7771;48.478;8.936;2024-03-02T03:28:07;4.30;99.90
15343;DHT22;7771;48.478;8.936;2024-03-02T03:33:06;4.30;99.90
15343;DHT22;7771;48.478;8.936;2024-03-02T03:35:33;4.30;99.90
15343;DHT22;7771;48.478;8.936;2024-03-02T03:37:59;4.20;99.90
15343;DHT22;7771;48.478;8.936;2024-03-02T03:40:27;4.20;99.90
15343;DHT22;7771;48.478;8.936;2024-03-02T03:42:54;4.30;99.90
15343;DHT22;7771;48.478;8.936;2024-03-02T03:45:21;4.30;99.90
15343;DHT22;7771;48.478;8.936;2024-03-02T03:47:49;4.20;99.90
15343;DHT22;7771;48.478;8.936;2024-03-02T03:50:16;4.20;99.90
15343;DHT22;7771;48.478;8.936;2024-03-02T03:52:43;4.10;99.90
15343;DHT22;7771;48.478;8.936;2024-03-02T03:55:10;4.10;99.90
15343;DHT22;7771;48.478;8.936;2024-03-02T03:57:38;4.10;99.90
15343;DHT22;7771;48.478;8.936;2024-03-02T04:00:05;4.10;99.90
15343;DHT22;7771;48.478;8.936;2024-03-02T04:02:32;4.10;99.90
15343;DHT22;7771;48.478;8.936;2024-03-02T04:04:58;4.20;99.90
15343;DHT22;7771;48.478;8.936;2024-03-02T04:07:25;4.10;99.90
15343;DHT22;7771;48.478;8.936;2024-03-02T04:09:52;4.10;99.90
15343;DHT22;7771;48.478;8.936;2024-03-02T04:12:18;4.00;99.90
15343;DHT22;7771;48.478;8.936;2024-03-02T04:14:45;4.00;99.90
15343;DHT22;7771;48.478;8.936;2024-03-02T04:17:13;4.00;99.90
15343;DHT22;7771;48.478;8.936;2024-03-02T04:19:40;4.00;99.90
15343;DHT22;7771;48.478;8.936;2024-03-02T04:22:08;4.00;99.90
15343;DHT22;7771;48.478;8.936;2024-03-02T04:24:35;4.00;99.90
15343;DHT22;7771;48.478;8.936;2024-03-02T04:27:02;4.00;99.90
15343;DHT22;7771;48.478;8.936;2024-03-02T04:29:29;4.00;99.90
15343;DHT22;7771;48.478;8.936;2024-03-02T04:31:56;3.90;99.90
15343;DHT22;7771;48.478;8.936;2024-03-02T04:34:23;3.90;99.90
15343;DHT22;7771;48.478;8.936;2024-03-02T04:36:51;3.90;99.90
15343;DHT22;7771;48.478;8.936;2024-03-02T04:39:19;3.90;99.90
15343;DHT22;7771;48.478;8.936;2024-03-02T04:41:45;3.90;99.90
15343;DHT22;7771;48.478;8.936;2024-03-02T04:46:41;4.00;99.90
15343;DHT22;7771;48.478;8.936;2024-03-02T04:49:07;4.00;99.90
15343;DHT22;7771;48.478;8.936;2024-03-02T04:51:34;4.00;99.90
15343;DHT22;7771;48.478;8.936;2024-03-02T04:54:02;3.90;99.90
15343;DHT22;7771;48.478;8.936;2024-03-02T04:56:29;3.90;99.90
15343;DHT22;7771;48.478;8.936;2024-03-02T04:59:13;3.90;99.90
15343;DHT22;7771;48.478;8.936;2024-03-02T05:04:08;3.80;99.90
15343;DHT22;7771;48.478;8.936;2024-03-02T05:06:34;3.80;99.90
15343;DHT22;7771;48.478;8.936;2024-03-02T05:09:01;3.80;99.90
15343;DHT22;7771;48.478;8.936;2024-03-02T05:11:29;3.80;99.90
15343;DHT22;7771;48.478;8.936;2024-03-02T05:14:02;3.80;99.90
15343;DHT22;7771;48.478;8.936;2024-03-02T05:16:28;3.80;99.90
15343;DHT22;7771;48.478;8.936;2024-03-02T05:18:56;3.80;99.90
15343;DHT22;7771;48.478;8.936;2024-03-02T05:21:24;3.70;99.90
15343;DHT22;7771;48.478;8.936;2024-03-02T05:26:18;3.70;99.90
15343;DHT22;7771;48.478;8.936;2024-03-02T05:28:45;3.70;99.90
15343;DHT22;7771;48.478;8.936;2024-03-02T05:36:10;3.70;99.90
15343;DHT22;7771;48.478;8.936;2024-03-02T05:38:38;3.70;99.90
15343;DHT22;7771;48.478;8.936;2024-03-02T05:43:33;3.80;99.90
15343;DHT22;7771;48.478;8.936;2024-03-02T05:46:00;3.80;99.90
15343;DHT22;7771;48.478;8.936;2024-03-02T05:48:27;3.90;99.90
15343;DHT22;7771;48.478;8.936;2024-03-02T05:50:55;3.90;99.90
15343;DHT22;7771;48.478;8.936;2024-03-02T05:53:21;3.90;99.90
15343;DHT22;7771;48.478;8.936;2024-03-02T05:55:49;3.80;99.90
15343;DHT22;7771;48.478;8.936;2024-03-02T05:58:15;3.80;99.90
15343;DHT22;7771;48.478;8.936;2024-03-02T06:00:57;3.80;99.90
15343;DHT22;7771;48.478;8.936;2024-03-02T06:03:25;3.80;99.90
15343;DHT22;7771;48.478;8.936;2024-03-02T06:05:51;3.80;99.90
15343;DHT22;7771;48.478;8.936;2024-03-02T06:08:19;3.70;99.90
15343;DHT22;7771;48.478;8.936;2024-03-02T06:10:46;3.80;99.90
15343;DHT22;7771;48.478;8.936;2024-03-02T06:13:13;3.80;99.90
15343;DHT22;7771;48.478;8.936;2024-03-02T06:15:40;3.80;99.90
15343;DHT22;7771;48.478;8.936;2024-03-02T06:18:07;3.80;99.90
15343;DHT22;7771;48.478;8.936;2024-03-02T06:23:02;3.80;99.90
15343;DHT22;7771;48.478;8.936;2024-03-02T06:25:28;3.80;99.90
15343;DHT22;7771;48.478;8.936;2024-03-02T06:27:55;3.80;99.90
15343;DHT22;7771;48.478;8.936;2024-03-02T06:30:22;3.80;99.90
15343;DHT22;7771;48.478;8.936;2024-03-02T06:32:48;3.80;99.90
15343;DHT22;7771;48.478;8.936;2024-03-02T06:35:16;3.90;99.90
15343;DHT22;7771;48.478;8.936;2024-03-02T06:37:43;3.90;99.90
15343;DHT22;7771;48.478;8.936;2024-03-02T06:40:11;3.90;99.90
15343;DHT22;7771;48.478;8.936;2024-03-02T06:42:38;3.90;99.90
15343;DHT22;7771;48.478;8.936;2024-03-02T06:47:33;3.90;99.90
15343;DHT22;7771;48.478;8.936;2024-03-02T06:50:00;3.90;99.90
15343;DHT22;7771;48.478;8.936;2024-03-02T06:52:26;4.00;99.90
15343;DHT22;7771;48.478;8.936;2024-03-02T06:54:53;4.00;99.90
15343;DHT22;7771;48.478;8.936;2024-03-02T06:57:20;4.10;99.90
15343;DHT22;7771;48.478;8.936;2024-03-02T06:59:47;4.20;99.90
15343;DHT22;7771;48.478;8.936;2024-03-02T07:04:42;4.30;99.90
15343;DHT22;7771;48.478;8.936;2024-03-02T07:07:09;4.30;99.90
15343;DHT22;7771;48.478;8.936;2024-03-02T07:09:36;4.30;99.90
15343;DHT22;7771;48.478;8.936;2024-03-02T07:12:03;4.40;99.90
15343;DHT22;7771;48.478;8.936;2024-03-02T07:14:29;4.30;99.90
15343;DHT22;7771;48.478;8.936;2024-03-02T07:17:03;4.30;99.90
15343;DHT22;7771;48.478;8.936;2024-03-02T07:19:29;4.30;99.90
15343;DHT22;7771;48.478;8.936;2024-03-02T07:21:57;4.40;99.90
15343;DHT22;7771;48.478;8.936;2024-03-02T07:24:25;4.40;99.90
15343;DHT22;7771;48.478;8.936;2024-03-02T07:26:51;4.40;99.90
15343;DHT22;7771;48.478;8.936;2024-03-02T07:31:47;4.30;99.90
15343;DHT22;7771;48.478;8.936;2024-03-02T07:34:13;4.30;99.90
15343;DHT22;7771;48.478;8.936;2024-03-02T07:36:40;4.30;99.90
15343;DHT22;7771;48.478;8.936;2024-03-02T07:39:08;4.30;99.90
15343;DHT22;7771;48.478;8.936;2024-03-02T07:41:35;4.30;99.90
15343;DHT22;7771;48.478;8.936;2024-03-02T07:44:03;4.30;99.90
15343;DHT22;7771;48.478;8.936;2024-03-02T07:46:30;4.40;99.90
15343;DHT22;7771;48.478;8.936;2024-03-02T07:48:56;4.40;99.90
15343;DHT22;7771;48.478;8.936;2024-03-02T07:51:23;4.60;99.90
15343;DHT22;7771;48.478;8.936;2024-03-02T07:53:51;4.70;99.90
15343;DHT22;7771;48.478;8.936;2024-03-02T07:58:46;5.00;99.90
15343;DHT22;7771;48.478;8.936;2024-03-02T08:01:13;5.00;99.90
15343;DHT22;7771;48.478;8.936;2024-03-02T08:03:40;5.20;99.90
15343;DHT22;7771;48.478;8.936;2024-03-02T08:06:07;5.20;99.90
15343;DHT22;7771;48.478;8.936;2024-03-02T08:08:34;5.40;99.90
15343;DHT22;7771;48.478;8.936;2024-03-02T08:11:00;5.60;99.90
15343;DHT22;7771;48.478;8.936;2024-03-02T08:13:28;5.80;99.90
15343;DHT22;7771;48.478;8.936;2024-03-02T08:15:56;6.00;99.90
15343;DHT22;7771;48.478;8.936;2024-03-02T08:18:23;6.30;99.90
15343;DHT22;7771;48.478;8.936;2024-03-02T08:20:49;6.60;99.90
15343;DHT22;7771;48.478;8.936;2024-03-02T08:23:16;6.90;99.90
15343;DHT22;7771;48.478;8.936;2024-03-02T08:25:43;7.30;99.90
15343;DHT22;7771;48.478;8.936;2024-03-02T08:28:10;7.60;99.90
15343;DHT22;7771;48.478;8.936;2024-03-02T08:33:05;8.30;99.90
15343;DHT22;7771;48.478;8.936;2024-03-02T08:35:31;8.60;99.90
15343;DHT22;7771;48.478;8.936;2024-03-02T08:37:59;8.90;99.90
15343;DHT22;7771;48.478;8.936;2024-03-02T08:40:27;9.10;99.90
15343;DHT22;7771;48.478;8.936;2024-03-02T08:42:53;9.40;99.90
15343;DHT22;7771;48.478;8.936;2024-03-02T08:45:21;9.60;99.90
15343;DHT22;7771;48.478;8.936;2024-03-02T08:47:47;9.80;99.90
15343;DHT22;7771;48.478;8.936;2024-03-02T08:50:14;10.00;99.90
15343;DHT22;7771;48.478;8.936;2024-03-02T08:52:41;10.20;99.90
15343;DHT22;7771;48.478;8.936;2024-03-02T08:55:08;10.50;99.90
15343;DHT22;7771;48.478;8.936;2024-03-02T08:57:36;10.80;99.90
15343;DHT22;7771;48.478;8.936;2024-03-02T09:00:02;11.00;99.90
15343;DHT22;7771;48.478;8.936;2024-03-02T09:02:29;11.30;99.90
15343;DHT22;7771;48.478;8.936;2024-03-02T09:04:56;11.50;99.90
15343;DHT22;7771;48.478;8.936;2024-03-02T09:07:23;11.70;99.90
15343;DHT22;7771;48.478;8.936;2024-03-02T09:09:50;11.80;99.90
15343;DHT22;7771;48.478;8.936;2024-03-02T09:12:17;12.00;99.90
15343;DHT22;7771;48.478;8.936;2024-03-02T09:14:44;12.10;99.90
15343;DHT22;7771;48.478;8.936;2024-03-02T09:17:11;12.20;99.90
15343;DHT22;7771;48.478;8.936;2024-03-02T09:19:38;12.20;99.90
15343;DHT22;7771;48.478;8.936;2024-03-02T09:22:06;12.30;99.90
15343;DHT22;7771;48.478;8.936;2024-03-02T09:24:33;12.40;99.90
15343;DHT22;7771;48.478;8.936;2024-03-02T09:27:00;12.40;99.90
15343;DHT22;7771;48.478;8.936;2024-03-02T09:29:28;12.30;99.90
15343;DHT22;7771;48.478;8.936;2024-03-02T09:31:56;12.40;99.90
15343;DHT22;7771;48.478;8.936;2024-03-02T09:36:51;12.50;99.90
15343;DHT22;7771;48.478;8.936;2024-03-02T09:39:19;12.60;99.90
15343;DHT22;7771;48.478;8.936;2024-03-02T09:41:47;12.60;99.90
15343;DHT22;7771;48.478;8.936;2024-03-02T09:46:41;12.70;99.90
15343;DHT22;7771;48.478;8.936;2024-03-02T09:49:08;12.80;99.90
15343;DHT22;7771;48.478;8.936;2024-03-02T09:51:35;12.80;99.90
15343;DHT22;7771;48.478;8.936;2024-03-02T09:54:02;12.90;99.90
15343;DHT22;7771;48.478;8.936;2024-03-02T09:56:29;13.00;99.90
15343;DHT22;7771;48.478;8.936;2024-03-02T09:58:57;13.10;99.90
15343;DHT22;7771;48.478;8.936;2024-03-02T10:01:24;13.10;99.90
15343;DHT22;7771;48.478;8.936;2024-03-02T10:03:51;13.20;99.90
15343;DHT22;7771;48.478;8.936;2024-03-02T10:06:19;13.30;99.90
15343;DHT22;7771;48.478;8.936;2024-03-02T10:08:46;13.30;99.90
15343;DHT22;7771;48.478;8.936;2024-03-02T10:11:25;13.30;99.90
15343;DHT22;7771;48.478;8.936;2024-03-02T10:13:41;13.40;99.90
15343;DHT22;7771;48.478;8.936;2024-03-02T10:16:13;13.40;99.90
15343;DHT22;7771;48.478;8.936;2024-03-02T10:18:39;13.50;99.90
15343;DHT22;7771;48.478;8.936;2024-03-02T10:21:13;13.60;99.90
15343;DHT22;7771;48.478;8.936;2024-03-02T10:23:39;13.70;99.90
15343;DHT22;7771;48.478;8.936;2024-03-02T10:26:17;13.80;99.90
15343;DHT22;7771;48.478;8.936;2024-03-02T10:28:47;13.90;99.90
15343;DHT22;7771;48.478;8.936;2024-03-02T10:31:14;14.00;99.90
15343;DHT22;7771;48.478;8.936;2024-03-02T10:33:41;14.10;99.90
15343;DHT22;7771;48.478;8.936;2024-03-02T10:36:08;14.20;99.90
15343;DHT22;7771;48.478;8.936;2024-03-02T10:38:36;14.20;99.90
15343;DHT22;7771;48.478;8.936;2024-03-02T10:41:03;14.30;99.90
15343;DHT22;7771;48.478;8.936;2024-03-02T10:43:30;14.40;99.90
15343;DHT22;7771;48.478;8.936;2024-03-02T10:45:58;14.40;99.90
15343;DHT22;7771;48.478;8.936;2024-03-02T10:48:25;14.50;99.90
15343;DHT22;7771;48.478;8.936;2024-03-02T10:50:52;14.60;99.90
15343;DHT22;7771;48.478;8.936;2024-03-02T10:55:47;14.80;99.90
15343;DHT22;7771;48.478;8.936;2024-03-02T10:58:14;14.90;99.90
15343;DHT22;7771;48.478;8.936;2024-03-02T11:00:41;14.90;99.90
15343;DHT22;7771;48.478;8.936;2024-03-02T11:03:09;14.90;99.90
15343;DHT22;7771;48.478;8.936;2024-03-02T11:05:37;15.00;99.90
15343;DHT22;7771;48.478;8.936;2024-03-02T11:08:06;15.10;99.90
15343;DHT22;7771;48.478;8.936;2024-03-02T11:10:34;15.10;99.90
15343;DHT22;7771;48.478;8.936;2024-03-02T11:13:00;15.20;99.90
15343;DHT22;7771;48.478;8.936;2024-03-02T11:15:27;15.20;99.90
15343;DHT22;7771;48.478;8.936;2024-03-02T11:17:55;15.20;99.90
15343;DHT22;7771;48.478;8.936;2024-03-02T11:22:49;15.30;99.90
15343;DHT22;7771;48.478;8.936;2024-03-02T11:25:24;15.30;99.90
15343;DHT22;7771;48.478;8.936;2024-03-02T11:28:08;15.30;99.90
15343;DHT22;7771;48.478;8.936;2024-03-02T11:30:50;15.30;99.90
15343;DHT22;7771;48.478;8.936;2024-03-02T11:33:22;15.40;99.90
15343;DHT22;7771;48.478;8.936;2024-03-02T11:35:45;15.50;99.90
15343;DHT22;7771;48.478;8.936;2024-03-02T11:40:40;15.70;99.90
15343;DHT22;7771;48.478;8.936;2024-03-02T11:43:07;15.70;99.90
15343;DHT22;7771;48.478;8.936;2024-03-02T11:45:35;15.90;99.90
15343;DHT22;7771;48.478;8.936;2024-03-02T11:48:04;16.00;99.90
15343;DHT22;7771;48.478;8.936;2024-03-02T11:50:34;16.10;99.90
15343;DHT22;7771;48.478;8.936;2024-03-02T11:53:01;16.20;99.90
15343;DHT22;7771;48.478;8.936;2024-03-02T11:55:28;16.20;99.90
15343;DHT22;7771;48.478;8.936;2024-03-02T12:00:24;16.30;99.90
15343;DHT22;7771;48.478;8.936;2024-03-02T12:03:00;16.40;99.90
15343;DHT22;7771;48.478;8.936;2024-03-02T12:10:26;16.60;99.90
15343;DHT22;7771;48.478;8.936;2024-03-02T12:13:01;16.70;99.90
15343;DHT22;7771;48.478;8.936;2024-03-02T12:17:57;16.80;99.90
15343;DHT22;7771;48.478;8.936;2024-03-02T12:20:25;16.80;99.90
15343;DHT22;7771;48.478;8.936;2024-03-02T12:25:20;16.90;99.70
15343;DHT22;7771;48.478;8.936;2024-03-02T12:27:51;16.80;99.00
15343;DHT22;7771;48.478;8.936;2024-03-02T12:30:19;16.90;98.60
15343;DHT22;7771;48.478;8.936;2024-03-02T12:32:45;16.90;98.10
15343;DHT22;7771;48.478;8.936;2024-03-02T12:35:12;16.90;98.50
15343;DHT22;7771;48.478;8.936;2024-03-02T12:37:45;16.90;98.70
15343;DHT22;7771;48.478;8.936;2024-03-02T12:40:11;17.00;98.80
15343;DHT22;7771;48.478;8.936;2024-03-02T12:42:38;17.10;98.90
15343;DHT22;7771;48.478;8.936;2024-03-02T12:45:06;17.20;98.60
15343;DHT22;7771;48.478;8.936;2024-03-02T12:47:33;17.30;98.50
15343;DHT22;7771;48.478;8.936;2024-03-02T12:49:59;17.40;98.20
15343;DHT22;7771;48.478;8.936;2024-03-02T12:52:26;17.50;98.00
15343;DHT22;7771;48.478;8.936;2024-03-02T12:54:53;17.50;97.80
15343;DHT22;7771;48.478;8.936;2024-03-02T12:57:20;17.60;97.60
15343;DHT22;7771;48.478;8.936;2024-03-02T12:59:47;17.60;97.20
15343;DHT22;7771;48.478;8.936;2024-03-02T13:04:42;17.60;97.00
15343;DHT22;7771;48.478;8.936;2024-03-02T13:07:10;17.50;97.10
15343;DHT22;7771;48.478;8.936;2024-03-02T13:09:37;17.50;96.70
15343;DHT22;7771;48.478;8.936;2024-03-02T13:12:05;17.50;97.00
15343;DHT22;7771;48.478;8.936;2024-03-02T13:14:33;17.40;96.60
15343;DHT22;7771;48.478;8.936;2024-03-02T13:17:00;17.50;96.80
15343;DHT22;7771;48.478;8.936;2024-03-02T13:19:27;17.50;96.80
15343;DHT22;7771;48.478;8.936;2024-03-02T13:21:54;17.50;96.90
15343;DHT22;7771;48.478;8.936;2024-03-02T13:24:20;17.50;96.70
15343;DHT22;7771;48.478;8.936;2024-03-02T13:26:48;17.60;96.60
15343;DHT22;7771;48.478;8.936;2024-03-02T13:29:16;17.60;96.40
15343;DHT22;7771;48.478;8.936;2024-03-02T13:31:43;17.60;96.40
15343;DHT22;7771;48.478;8.936;2024-03-02T13:34:10;17.50;95.90
15343;DHT22;7771;48.478;8.936;2024-03-02T13:39:05;17.30;96.10
15343;DHT22;7771;48.478;8.936;2024-03-02T13:41:33;17.30;96.20
15343;DHT22;7771;48.478;8.936;2024-03-02T13:44:00;17.30;96.50
15343;DHT22;7771;48.478;8.936;2024-03-02T13:46:28;17.20;96.30
15343;DHT22;7771;48.478;8.936;2024-03-02T13:48:55;17.30;96.40
15343;DHT22;7771;48.478;8.936;2024-03-02T13:51:22;17.20;96.20
15343;DHT22;7771;48.478;8.936;2024-03-02T13:53:49;17.20;96.10
15343;DHT22;7771;48.478;8.936;2024-03-02T13:56:15;17.20;96.10
15343;DHT22;7771;48.478;8.936;2024-03-02T13:58:43;17.20;96.00
15343;DHT22;7771;48.478;8.936;2024-03-02T14:06:06;17.40;95.20
15343;DHT22;7771;48.478;8.936;2024-03-02T14:08:32;17.30;95.30
15343;DHT22;7771;48.478;8.936;2024-03-02T14:11:00;17.30;95.60
15343;DHT22;7771;48.478;8.936;2024-03-02T14:13:27;17.30;95.70
15343;DHT22;7771;48.478;8.936;2024-03-02T14:15:55;17.40;95.40
15343;DHT22;7771;48.478;8.936;2024-03-02T14:18:22;17.40;95.60
15343;DHT22;7771;48.478;8.936;2024-03-02T14:20:49;17.40;95.70
15343;DHT22;7771;48.478;8.936;2024-03-02T14:23:18;17.40;95.30
15343;DHT22;7771;48.478;8.936;2024-03-02T14:25:46;17.40;95.60
15343;DHT22;7771;48.478;8.936;2024-03-02T14:28:13;17.40;95.80
15343;DHT22;7771;48.478;8.936;2024-03-02T14:30:41;17.40;95.40
15343;DHT22;7771;48.478;8.936;2024-03-02T14:33:08;17.40;95.10
15343;DHT22;7771;48.478;8.936;2024-03-02T14:38:04;17.20;95.50
15343;DHT22;7771;48.478;8.936;2024-03-02T14:40:31;17.10;95.40
15343;DHT22;7771;48.478;8.936;2024-03-02T14:42:58;17.00;95.50
15343;DHT22;7771;48.478;8.936;2024-03-02T14:45:26;16.90;95.70
15343;DHT22;7771;48.478;8.936;2024-03-02T14:47:52;16.80;95.80
15343;DHT22;7771;48.478;8.936;2024-03-02T14:50:19;16.80;95.80
15343;DHT22;7771;48.478;8.936;2024-03-02T14:52:46;16.80;95.90
15343;DHT22;7771;48.478;8.936;2024-03-02T14:55:13;16.80;95.40
15343;DHT22;7771;48.478;8.936;2024-03-02T14:57:41;16.90;94.70
15343;DHT22;7771;48.478;8.936;2024-03-02T15:00:09;16.80;94.80
15343;DHT22;7771;48.478;8.936;2024-03-02T15:02:37;16.70;95.20
15343;DHT22;7771;48.478;8.936;2024-03-02T15:05:04;16.60;95.10
15343;DHT22;7771;48.478;8.936;2024-03-02T15:07:30;16.40;95.00
15343;DHT22;7771;48.478;8.936;2024-03-02T15:09:58;16.40;94.80
15343;DHT22;7771;48.478;8.936;2024-03-02T15:12:27;16.30;94.40
15343;DHT22;7771;48.478;8.936;2024-03-02T15:14:55;16.20;94.50
15343;DHT22;7771;48.478;8.936;2024-03-02T15:17:22;16.20;94.60
15343;DHT22;7771;48.478;8.936;2024-03-02T15:19:49;16.20;94.70
15343;DHT22;7771;48.478;8.936;2024-03-02T15:22:15;16.10;94.70
15343;DHT22;7771;48.478;8.936;2024-03-02T15:24:43;16.10;94.50
15343;DHT22;7771;48.478;8.936;2024-03-02T15:27:09;16.10;94.20
15343;DHT22;7771;48.478;8.936;2024-03-02T15:29:36;16.10;94.10
15343;DHT22;7771;48.478;8.936;2024-03-02T15:32:03;16.10;93.90
15343;DHT22;7771;48.478;8.936;2024-03-02T15:34:31;16.00;93.70
15343;DHT22;7771;48.478;8.936;2024-03-02T15:36:58;16.00;93.80
15343;DHT22;7771;48.478;8.936;2024-03-02T15:39:25;16.00;93.80
15343;DHT22;7771;48.478;8.936;2024-03-02T15:41:53;16.00;93.80
15343;DHT22;7771;48.478;8.936;2024-03-02T15:44:19;16.00;93.90
15343;DHT22;7771;48.478;8.936;2024-03-02T15:46:46;16.00;93.90
15343;DHT22;7771;48.478;8.936;2024-03-02T15:49:13;16.00;94.10
15343;DHT22;7771;48.478;8.936;2024-03-02T15:54:08;15.90;94.30
15343;DHT22;7771;48.478;8.936;2024-03-02T15:56:35;15.90;94.30
15343;DHT22;7771;48.478;8.936;2024-03-02T15:59:02;15.90;94.50
15343;DHT22;7771;48.478;8.936;2024-03-02T16:01:29;15.80;94.50
15343;DHT22;7771;48.478;8.936;2024-03-02T16:03:56;15.80;94.60
15343;DHT22;7771;48.478;8.936;2024-03-02T16:06:24;15.80;94.70
15343;DHT22;7771;48.478;8.936;2024-03-02T16:08:50;15.80;94.40
15343;DHT22;7771;48.478;8.936;2024-03-02T16:11:18;15.80;94.30
15343;DHT22;7771;48.478;8.936;2024-03-02T16:13:45;15.70;93.80
15343;DHT22;7771;48.478;8.936;2024-03-02T16:16:12;15.70;93.50
15343;DHT22;7771;48.478;8.936;2024-03-02T16:21:08;15.60;92.10
15343;DHT22;7771;48.478;8.936;2024-03-02T16:23:34;15.60;90.90
15343;DHT22;7771;48.478;8.936;2024-03-02T16:26:01;15.50;90.70
15343;DHT22;7771;48.478;8.936;2024-03-02T16:28:27;15.50;90.80
15343;DHT22;7771;48.478;8.936;2024-03-02T16:30:54;15.40;90.60
15343;DHT22;7771;48.478;8.936;2024-03-02T16:33:21;15.30;90.50
15343;DHT22;7771;48.478;8.936;2024-03-02T16:35:49;15.20;90.70
15343;DHT22;7771;48.478;8.936;2024-03-02T16:38:15;15.20;90.90
15343;DHT22;7771;48.478;8.936;2024-03-02T16:40:43;15.20;91.50
15343;DHT22;7771;48.478;8.936;2024-03-02T16:43:10;15.10;92.10
15343;DHT22;7771;48.478;8.936;2024-03-02T16:48:06;15.00;93.30
15343;DHT22;7771;48.478;8.936;2024-03-02T16:50:33;14.90;93.60
15343;DHT22;7771;48.478;8.936;2024-03-02T16:55:28;14.80;94.30
15343;DHT22;7771;48.478;8.936;2024-03-02T16:57:54;14.70;94.60
15343;DHT22;7771;48.478;8.936;2024-03-02T17:00:21;14.60;94.90
15343;DHT22;7771;48.478;8.936;2024-03-02T17:02:49;14.60;95.20
15343;DHT22;7771;48.478;8.936;2024-03-02T17:05:17;14.60;95.60
15343;DHT22;7771;48.478;8.936;2024-03-02T17:07:45;14.50;95.90
15343;DHT22;7771;48.478;8.936;2024-03-02T17:10:12;14.50;96.20
15343;DHT22;7771;48.478;8.936;2024-03-02T17:12:40;14.50;96.50
15343;DHT22;7771;48.478;8.936;2024-03-02T17:15:07;14.40;96.80
15343;DHT22;7771;48.478;8.936;2024-03-02T17:17:34;14.40;97.10
15343;DHT22;7771;48.478;8.936;2024-03-02T17:20:02;14.40;97.40
15343;DHT22;7771;48.478;8.936;2024-03-02T17:22:29;14.30;98.00
15343;DHT22;7771;48.478;8.936;2024-03-02T17:24:57;14.30;97.80
15343;DHT22;7771;48.478;8.936;2024-03-02T17:27:24;14.30;98.00
15343;DHT22;7771;48.478;8.936;2024-03-02T17:29:51;14.20;98.20
15343;DHT22;7771;48.478;8.936;2024-03-02T17:32:18;14.20;98.40